16/04/05 - 18h:54mDenunciar

Dassault Mirage F-1CT

Imagem de Maurice Hendriks, retirada do site Airliners.net.





METAR SBPB 162200Z 10005KT 9999 FEW017 BKN090 BKN300 28/24 Q1010=

Comentários (0)

Fotos postadas a mais de 15 dias não podem receber comentários.